Sea Robin — WDG6181 — position and weather

sailwx.info

Track history (hours):
 
Tides and Currents Weather Stations Pressure Air Temp Water Temp Dewpoint Dewpoint Depression Visibility Wind Speed Wind Dir Waves Ship Positions

Sea Robin

Owner: Kirby Offshore Marine, LLC, Staten Island, NY. More information available from US FCC via Universal Licensing System and Coast Guard Vessel Documentation Center.

Last reported at 2018-Jan-22 21:33 UTC. Time now 2018-Jan-23 03:52 UTC.
Position N 38°35' W 076°28'.

Length 32 m; draft 5 m.

Type: Towing. MMSI: 366836950.

Date/timePositionNaut miles runAvg speedWind from/ knotsBaromVisibWave heightAir tempDewpointWater temp
2018-Jan-22 21:33N 38°35' W 076°28'0 5.5
2018-Jan-22 21:30N 38°35' W 076°28'3 5.6
2018-Jan-22 21:00N 38°38' W 076°27'3 5.8
2018-Jan-22 20:30N 38°41' W 076°27'3 6.1
2018-Jan-22 20:00N 38°44' W 076°27'3 6.4
2018-Jan-22 19:30N 38°47' W 076°26'4 6.4
2018-Jan-22 18:58N 38°50' W 076°25'3 6.7
2018-Jan-22 18:30N 38°53' W 076°24'3 6.8
2018-Jan-22 18:00N 38°57' W 076°24'3 6.6
2018-Jan-22 17:30N 39°00' W 076°23'3 6.3
2018-Jan-22 17:00N 39°03' W 076°21'3 5.8
2018-Jan-22 16:30N 39°06' W 076°19'3 5.5
2018-Jan-22 15:59N 39°08' W 076°20'3 5.4
2018-Jan-22 15:30N 39°10' W 076°17'40 5.9
2018-Jan-22 08:38N 39°34' W 075°35'1 6.3
2018-Jan-22 08:27N 39°34' W 075°33'4 4.5
2018-Jan-22 07:39N 39°37' W 075°35'1 4.8
2018-Jan-22 07:30N 39°38' W 075°34'2 4.7
2018-Jan-22 07:00N 39°40' W 075°32'2 4.3
2018-Jan-22 06:30N 39°41' W 075°31'2 4.2
2018-Jan-22 06:00N 39°44' W 075°30'2 4.6
2018-Jan-22 05:30N 39°46' W 075°29'2 5.0
2018-Jan-22 05:00N 39°47' W 075°27'3 5.6
2018-Jan-22 04:30N 39°49' W 075°24'3 6.5
2018-Jan-22 04:00N 39°51' W 075°20'4 7.1
2018-Jan-22 03:30N 39°51' W 075°16'4 7.4
2018-Jan-22 03:00N 39°53' W 075°12'3 6.4
2018-Jan-22 02:30N 39°54' W 075°08'4 7.0
2018-Jan-22 02:00N 39°58' W 075°07'4 7.1
2018-Jan-22 01:31N 39°60' W 075°04'0 0.4
2018-Jan-22 01:01N 40°00' W 075°04'0 0.0
2018-Jan-22 00:27N 40°00' W 075°04'0 0.0
2018-Jan-22 00:00N 40°00' W 075°04'0 0.0
2018-Jan-21 23:30N 40°00' W 075°04'0 0.0
2018-Jan-21 23:00N 40°00' W 075°04'0 0.0
2018-Jan-21 22:30N 40°00' W 075°04'0 0.0
2018-Jan-21 22:00N 40°00' W 075°04'0 0.0
2018-Jan-21 21:30N 40°00' W 075°04'0 0.0
2018-Jan-21 21:01N 40°00' W 075°04'0 0.0
2018-Jan-21 20:30N 40°00' W 075°04'0 0.0
2018-Jan-21 20:01N 40°00' W 075°04'0 0.0
2018-Jan-21 19:30N 40°00' W 075°04'0 0.0
2018-Jan-21 19:00N 40°00' W 075°04'2 3.2
2018-Jan-21 18:31N 39°59' W 075°05'5 9.9
2018-Jan-21 18:00N 39°54' W 075°08'3 5.8
2018-Jan-21 17:29N 39°53' W 075°12'0 0.0
2018-Jan-21 16:59N 39°53' W 075°12'0 0.0
2018-Jan-21 16:29N 39°53' W 075°12'0 0.0
2018-Jan-21 15:59N 39°53' W 075°12'0 0.0
2018-Jan-21 15:29N 39°53' W 075°12'0 0.0
2018-Jan-21 14:56N 39°53' W 075°12'0 0.0
2018-Jan-21 14:29N 39°53' W 075°12'0 0.0
2018-Jan-21 13:59N 39°53' W 075°12'0 0.0
2018-Jan-21 13:29N 39°53' W 075°12'0 0.1
2018-Jan-21 12:59N 39°53' W 075°12'0 0.0
2018-Jan-21 12:29N 39°53' W 075°12'0 0.1
2018-Jan-21 12:00N 39°53' W 075°12'3 6.6
2018-Jan-21 11:30N 39°55' W 075°08'4 8.9
2018-Jan-21 11:00N 39°59' W 075°04'1 2.7
2018-Jan-21 10:30N 40°00' W 075°04'0 0.0
2018-Jan-21 10:00N 40°00' W 075°04'0 0.0
2018-Jan-21 09:30N 40°00' W 075°04'0 0.0
2018-Jan-21 09:00N 40°00' W 075°04'0 0.0
2018-Jan-21 08:30N 40°00' W 075°04'0 0.0
2018-Jan-21 08:00N 40°00' W 075°04'0 0.0
2018-Jan-21 07:30N 40°00' W 075°04'0 0.0
2018-Jan-21 07:00N 40°00' W 075°04'0 0.1
2018-Jan-21 06:30N 39°60' W 075°04'0 0.0
2018-Jan-21 06:00N 39°60' W 075°04'1 1.1
2018-Jan-21 05:30N 39°59' W 075°04'4 8.4
2018-Jan-21 05:00N 39°57' W 075°08'4 8.3
2018-Jan-21 04:30N 39°53' W 075°09'4 8.0
2018-Jan-21 04:00N 39°52' W 075°14'4 8.0
2018-Jan-21 03:30N 39°51' W 075°19'4 7.3
2018-Jan-21 03:00N 39°49' W 075°23'4 7.3
2018-Jan-21 02:29N 39°47' W 075°27'3 6.1
2018-Jan-21 02:00N 39°45' W 075°30'3 6.4
2018-Jan-21 01:30N 39°42' W 075°31'3 6.8
2018-Jan-21 01:00N 39°39' W 075°33'4 5.9
2018-Jan-21 00:17N 39°35' W 075°33'39 7.1
2018-Jan-20 18:52N 39°13' W 076°15'4 8.1
2018-Jan-20 18:26N 39°10' W 076°18'3 8.2
2018-Jan-20 18:00N 39°07' W 076°20'3 6.7
2018-Jan-20 17:30N 39°04' W 076°21'0 0.4
2018-Jan-20 17:00N 39°04' W 076°21'2 3.2
2018-Jan-20 16:30N 39°02' W 076°21'4 7.6
2018-Jan-20 16:00N 38°59' W 076°23'4 8.2
2018-Jan-20 15:30N 38°55' W 076°24'4 8.4
2018-Jan-20 15:00N 38°51' W 076°25'5 8.4
2018-Jan-20 14:28N 38°46' W 076°27'109 7.9
2018-Jan-20 00:41N 36°58' W 076°21'2 7.7
2018-Jan-20 00:27N 36°57' W 076°24'  
Track history (hours):
 
Tides and Currents Weather Stations Pressure Air Temp Water Temp Dewpoint Dewpoint Depression Visibility Wind Speed Wind Dir Waves Ship Positions

Sea Robin

Owner: Kirby Offshore Marine, LLC, Staten Island, NY. More information available from US FCC via Universal Licensing System and Coast Guard Vessel Documentation Center.

Last reported at 2018-Jan-22 21:33 UTC. Time now 2018-Jan-23 03:52 UTC.
Position N 38°35' W 076°28'.

Length 32 m; draft 5 m.

Type: Towing. MMSI: 366836950.

Date/timePositionNaut miles runAvg speedWind from/ knotsBaromVisibWave heightAir tempDewpointWater temp
2018-Jan-22 21:33N 38°35' W 076°28'0 5.5
2018-Jan-22 21:30N 38°35' W 076°28'3 5.6
2018-Jan-22 21:00N 38°38' W 076°27'3 5.8
2018-Jan-22 20:30N 38°41' W 076°27'3 6.1
2018-Jan-22 20:00N 38°44' W 076°27'3 6.4
2018-Jan-22 19:30N 38°47' W 076°26'4 6.4
2018-Jan-22 18:58N 38°50' W 076°25'3 6.7
2018-Jan-22 18:30N 38°53' W 076°24'3 6.8
2018-Jan-22 18:00N 38°57' W 076°24'3 6.6
2018-Jan-22 17:30N 39°00' W 076°23'3 6.3
2018-Jan-22 17:00N 39°03' W 076°21'3 5.8
2018-Jan-22 16:30N 39°06' W 076°19'3 5.5
2018-Jan-22 15:59N 39°08' W 076°20'3 5.4
2018-Jan-22 15:30N 39°10' W 076°17'40 5.9
2018-Jan-22 08:38N 39°34' W 075°35'1 6.3
2018-Jan-22 08:27N 39°34' W 075°33'4 4.5
2018-Jan-22 07:39N 39°37' W 075°35'1 4.8
2018-Jan-22 07:30N 39°38' W 075°34'2 4.7
2018-Jan-22 07:00N 39°40' W 075°32'2 4.3
2018-Jan-22 06:30N 39°41' W 075°31'2 4.2
2018-Jan-22 06:00N 39°44' W 075°30'2 4.6
2018-Jan-22 05:30N 39°46' W 075°29'2 5.0
2018-Jan-22 05:00N 39°47' W 075°27'3 5.6
2018-Jan-22 04:30N 39°49' W 075°24'3 6.5
2018-Jan-22 04:00N 39°51' W 075°20'4 7.1
2018-Jan-22 03:30N 39°51' W 075°16'4 7.4
2018-Jan-22 03:00N 39°53' W 075°12'3 6.4
2018-Jan-22 02:30N 39°54' W 075°08'4 7.0
2018-Jan-22 02:00N 39°58' W 075°07'4 7.1
2018-Jan-22 01:31N 39°60' W 075°04'0 0.4
2018-Jan-22 01:01N 40°00' W 075°04'0 0.0
2018-Jan-22 00:27N 40°00' W 075°04'0 0.0
2018-Jan-22 00:00N 40°00' W 075°04'0 0.0
2018-Jan-21 23:30N 40°00' W 075°04'0 0.0
2018-Jan-21 23:00N 40°00' W 075°04'0 0.0
2018-Jan-21 22:30N 40°00' W 075°04'0 0.0
2018-Jan-21 22:00N 40°00' W 075°04'0 0.0
2018-Jan-21 21:30N 40°00' W 075°04'0 0.0
2018-Jan-21 21:01N 40°00' W 075°04'0 0.0
2018-Jan-21 20:30N 40°00' W 075°04'0 0.0
2018-Jan-21 20:01N 40°00' W 075°04'0 0.0
2018-Jan-21 19:30N 40°00' W 075°04'0 0.0
2018-Jan-21 19:00N 40°00' W 075°04'2 3.2
2018-Jan-21 18:31N 39°59' W 075°05'5 9.9
2018-Jan-21 18:00N 39°54' W 075°08'3 5.8
2018-Jan-21 17:29N 39°53' W 075°12'0 0.0
2018-Jan-21 16:59N 39°53' W 075°12'0 0.0
2018-Jan-21 16:29N 39°53' W 075°12'0 0.0
2018-Jan-21 15:59N 39°53' W 075°12'0 0.0
2018-Jan-21 15:29N 39°53' W 075°12'0 0.0
2018-Jan-21 14:56N 39°53' W 075°12'0 0.0
2018-Jan-21 14:29N 39°53' W 075°12'0 0.0
2018-Jan-21 13:59N 39°53' W 075°12'0 0.0
2018-Jan-21 13:29N 39°53' W 075°12'0 0.1
2018-Jan-21 12:59N 39°53' W 075°12'0 0.0
2018-Jan-21 12:29N 39°53' W 075°12'0 0.1
2018-Jan-21 12:00N 39°53' W 075°12'3 6.6
2018-Jan-21 11:30N 39°55' W 075°08'4 8.9
2018-Jan-21 11:00N 39°59' W 075°04'1 2.7
2018-Jan-21 10:30N 40°00' W 075°04'0 0.0
2018-Jan-21 10:00N 40°00' W 075°04'0 0.0
2018-Jan-21 09:30N 40°00' W 075°04'0 0.0
2018-Jan-21 09:00N 40°00' W 075°04'0 0.0
2018-Jan-21 08:30N 40°00' W 075°04'0 0.0
2018-Jan-21 08:00N 40°00' W 075°04'0 0.0
2018-Jan-21 07:30N 40°00' W 075°04'0 0.0
2018-Jan-21 07:00N 40°00' W 075°04'0 0.1
2018-Jan-21 06:30N 39°60' W 075°04'0 0.0
2018-Jan-21 06:00N 39°60' W 075°04'1 1.1
2018-Jan-21 05:30N 39°59' W 075°04'4 8.4
2018-Jan-21 05:00N 39°57' W 075°08'4 8.3
2018-Jan-21 04:30N 39°53' W 075°09'4 8.0
2018-Jan-21 04:00N 39°52' W 075°14'4 8.0
2018-Jan-21 03:30N 39°51' W 075°19'4 7.3
2018-Jan-21 03:00N 39°49' W 075°23'4 7.3
2018-Jan-21 02:29N 39°47' W 075°27'3 6.1
2018-Jan-21 02:00N 39°45' W 075°30'3 6.4
2018-Jan-21 01:30N 39°42' W 075°31'3 6.8
2018-Jan-21 01:00N 39°39' W 075°33'4 5.9
2018-Jan-21 00:17N 39°35' W 075°33'39 7.1
2018-Jan-20 18:52N 39°13' W 076°15'4 8.1
2018-Jan-20 18:26N 39°10' W 076°18'3 8.2
2018-Jan-20 18:00N 39°07' W 076°20'3 6.7
2018-Jan-20 17:30N 39°04' W 076°21'0 0.4
2018-Jan-20 17:00N 39°04' W 076°21'2 3.2
2018-Jan-20 16:30N 39°02' W 076°21'4 7.6
2018-Jan-20 16:00N 38°59' W 076°23'4 8.2
2018-Jan-20 15:30N 38°55' W 076°24'4 8.4
2018-Jan-20 15:00N 38°51' W 076°25'5 8.4
2018-Jan-20 14:28N 38°46' W 076°27'109 7.9
2018-Jan-20 00:41N 36°58' W 076°21'2 7.7
2018-Jan-20 00:27N 36°57' W 076°24'  

Dump ship's entire track history